createdAt,value
2023-04-09T00:01:37.627Z,18.17
2023-04-09T00:04:40.421Z,17.45
2023-04-09T00:07:44.468Z,19.52
2023-04-09T00:10:47.492Z,14.77
2023-04-09T00:13:49.949Z,14.60
2023-04-09T00:16:52.379Z,15.27
2023-04-09T00:19:54.952Z,18.65
2023-04-09T00:22:58.248Z,36.65
2023-04-09T00:26:01.352Z,31.40
2023-04-09T00:29:03.827Z,20.98
2023-04-09T00:32:07.014Z,22.77
2023-04-09T00:35:09.857Z,21.35
2023-04-09T00:38:12.325Z,17.67
2023-04-09T00:41:15.312Z,17.03
2023-04-09T00:44:17.765Z,15.73
2023-04-09T00:47:20.276Z,12.98
2023-04-09T00:50:23.108Z,13.38
2023-04-09T00:53:25.622Z,10.85
2023-04-09T00:56:29.056Z,24.23
2023-04-09T00:59:31.606Z,19.13
2023-04-09T01:02:34.765Z,13.55
2023-04-09T01:06:22.399Z,10.30
2023-04-09T01:09:28.673Z,10.20
2023-04-09T01:12:52.114Z,11.97
2023-04-09T01:15:57.205Z,12.07
2023-04-09T01:19:04.396Z,13.43
2023-04-09T01:22:14.642Z,20.38
2023-04-09T01:25:17.049Z,14.85
2023-04-09T01:28:39.975Z,13.10
2023-04-09T01:31:43.281Z,16.30
2023-04-09T01:34:47.266Z,14.60
2023-04-09T01:37:49.985Z,17.00
2023-04-09T01:40:53.857Z,16.35
2023-04-09T01:43:56.827Z,15.50
2023-04-09T01:46:59.455Z,14.93
2023-04-09T01:50:02.730Z,14.80
2023-04-09T01:53:05.392Z,14.50
2023-04-09T01:56:08.836Z,14.38
2023-04-09T01:59:11.526Z,14.17
2023-04-09T02:02:19.466Z,12.80
2023-04-09T02:05:24.233Z,12.77
2023-04-09T02:08:27.899Z,11.73
2023-04-09T02:11:32.450Z,12.63
2023-04-09T02:14:35.836Z,12.10
2023-04-09T02:17:38.349Z,10.90
2023-04-09T02:20:40.877Z,11.40
2023-04-09T02:23:43.451Z,9.68
2023-04-09T02:26:46.083Z,10.32
2023-04-09T02:29:48.695Z,9.87
2023-04-09T02:32:51.608Z,9.82
2023-04-09T02:35:54.160Z,8.57
2023-04-09T02:38:57.044Z,9.32
2023-04-09T02:41:59.563Z,8.73
2023-04-09T02:45:03.331Z,8.20
2023-04-09T02:48:07.368Z,8.70
2023-04-09T02:51:11.917Z,8.43
2023-04-09T02:54:14.333Z,11.68
2023-04-09T02:57:16.811Z,14.25
2023-04-09T03:00:19.521Z,15.23
2023-04-09T03:03:23.110Z,14.98
2023-04-09T03:06:26.661Z,14.05
2023-04-09T03:09:30.774Z,13.02
2023-04-09T03:12:33.306Z,14.85
2023-04-09T03:15:35.824Z,14.10
2023-04-09T03:18:38.663Z,12.75
2023-04-09T03:21:41.401Z,15.00
2023-04-09T03:24:44.055Z,19.10
2023-04-09T03:27:47.029Z,13.82
2023-04-09T03:30:56.447Z,11.97
2023-04-09T03:34:00.633Z,13.52
2023-04-09T03:37:04.099Z,20.17
2023-04-09T03:40:08.690Z,17.13
2023-04-09T03:43:11.529Z,12.32
2023-04-09T03:46:18.920Z,11.27
2023-04-09T03:49:23.736Z,10.73
2023-04-09T03:52:26.479Z,18.88
2023-04-09T03:55:37.862Z,26.48
2023-04-09T03:58:45.365Z,20.10
2023-04-09T04:01:50.155Z,20.00
2023-04-09T04:04:53.341Z,18.30
2023-04-09T04:07:57.945Z,15.32
2023-04-09T04:11:05.186Z,15.30
2023-04-09T04:14:08.559Z,13.93
2023-04-09T04:17:11.787Z,14.40
2023-04-09T04:20:14.978Z,19.75
2023-04-09T04:23:29.288Z,16.90
2023-04-09T04:26:45.355Z,16.02
2023-04-09T04:29:51.398Z,14.40
2023-04-09T04:33:12.860Z,15.20
2023-04-09T04:36:21.137Z,13.23
2023-04-09T04:39:27.060Z,19.45
2023-04-09T04:42:48.532Z,12.23
2023-04-09T04:45:53.537Z,12.02
2023-04-09T04:48:59.684Z,14.93
2023-04-09T04:52:03.136Z,15.18
2023-04-09T04:55:07.136Z,16.63
2023-04-09T04:58:09.670Z,14.55
2023-04-09T05:01:22.432Z,14.43
2023-04-09T05:04:25.902Z,14.60
2023-04-09T05:07:30.245Z,13.65
2023-04-09T05:10:34.265Z,10.30
2023-04-09T05:13:36.783Z,9.07
2023-04-09T05:16:43.359Z,9.15
2023-04-09T05:19:53.777Z,8.80
2023-04-09T05:23:01.957Z,12.32
2023-04-09T05:26:09.048Z,18.38
2023-04-09T05:29:22.504Z,9.10
2023-04-09T05:32:25.096Z,10.23
2023-04-09T05:35:27.719Z,8.30
2023-04-09T05:38:30.764Z,8.23
2023-04-09T05:41:37.343Z,8.20
2023-04-09T05:45:03.286Z,7.68
2023-04-09T05:48:06.097Z,7.57
2023-04-09T05:51:10.006Z,7.37
2023-04-09T05:54:13.187Z,7.10
2023-04-09T05:57:15.843Z,7.80
2023-04-09T06:00:23.800Z,7.95
2023-04-09T06:03:26.553Z,8.07
2023-04-09T06:06:29.661Z,7.33
2023-04-09T06:09:32.134Z,7.88
2023-04-09T06:12:35.795Z,8.27
2023-04-09T06:15:39.520Z,12.63
2023-04-09T06:18:42.649Z,16.52
2023-04-09T06:21:45.328Z,16.27
2023-04-09T06:24:47.923Z,10.82
2023-04-09T06:27:50.548Z,7.78
2023-04-09T06:30:54.696Z,17.77
2023-04-09T06:33:57.395Z,21.90
2023-04-09T06:36:59.802Z,22.27
2023-04-09T06:40:03.316Z,18.45
2023-04-09T06:43:06.550Z,19.88
2023-04-09T06:46:20.257Z,15.90
2023-04-09T06:49:22.898Z,19.70
2023-04-09T06:52:25.674Z,18.87
2023-04-09T06:55:28.287Z,11.32
2023-04-09T06:58:30.788Z,15.85
2023-04-09T07:01:33.476Z,16.02
2023-04-09T07:04:36.258Z,18.02
2023-04-09T07:07:39.056Z,18.60
2023-04-09T07:10:42.507Z,10.80
2023-04-09T07:13:45.290Z,8.60
2023-04-09T07:16:48.343Z,8.23
2023-04-09T07:19:51.736Z,8.57
2023-04-09T07:22:54.451Z,6.67
2023-04-09T07:25:57.660Z,6.35
2023-04-09T07:29:00.202Z,5.63
2023-04-09T07:32:03.559Z,6.18
2023-04-09T07:35:09.929Z,9.40
2023-04-09T07:38:12.416Z,9.53
2023-04-09T07:41:15.242Z,9.00
2023-04-09T07:44:18.678Z,6.07
2023-04-09T07:47:21.770Z,5.10
2023-04-09T07:50:24.395Z,5.60
2023-04-09T07:53:26.968Z,5.37
2023-04-09T07:56:29.478Z,5.75
2023-04-09T07:59:32.156Z,6.05
2023-04-09T08:02:35.511Z,5.70
2023-04-09T08:05:38.217Z,5.22
2023-04-09T08:08:41.855Z,4.43
2023-04-09T08:11:45.782Z,5.75
2023-04-09T08:14:48.654Z,6.30
2023-04-09T08:17:51.697Z,5.40
2023-04-09T08:20:54.320Z,5.53
2023-04-09T08:24:01.274Z,5.00
2023-04-09T08:27:03.777Z,5.65
2023-04-09T08:30:06.857Z,4.65
2023-04-09T08:33:10.055Z,5.95
2023-04-09T08:36:12.634Z,5.88
2023-04-09T08:39:16.514Z,4.90
2023-04-09T08:42:19.861Z,4.50
2023-04-09T08:45:22.737Z,5.10
2023-04-09T08:48:25.462Z,4.70
2023-04-09T08:51:28.917Z,4.68
2023-04-09T08:54:32.212Z,4.60
2023-04-09T08:57:41.174Z,5.00
2023-04-09T09:00:43.729Z,4.93
2023-04-09T09:04:05.819Z,5.63
2023-04-09T09:07:08.497Z,5.95
2023-04-09T09:10:11.349Z,4.33
2023-04-09T09:13:22.433Z,4.55
2023-04-09T09:16:25.044Z,4.68
2023-04-09T09:19:27.436Z,4.45
2023-04-09T09:22:29.940Z,3.60
2023-04-09T09:25:41.602Z,5.33
2023-04-09T09:28:48.459Z,4.10
2023-04-09T09:31:54.637Z,4.90
2023-04-09T09:35:07.450Z,5.22
2023-04-09T09:38:09.913Z,5.18
2023-04-09T09:41:19.458Z,5.73
2023-04-09T09:44:32.415Z,5.93
2023-04-09T09:47:34.958Z,5.90
2023-04-09T09:50:39.328Z,7.57
2023-04-09T09:53:46.203Z,6.35
2023-04-09T09:56:52.682Z,6.67
2023-04-09T10:00:01.037Z,5.82
2023-04-09T10:03:16.209Z,6.28
2023-04-09T10:06:18.967Z,5.22
2023-04-09T10:09:22.272Z,5.70
2023-04-09T10:12:27.246Z,6.53
2023-04-09T10:15:30.085Z,6.45
2023-04-09T10:18:33.524Z,6.50
2023-04-09T10:21:44.030Z,5.75
2023-04-09T10:24:47.170Z,5.57
2023-04-09T10:28:02.567Z,5.23
2023-04-09T10:31:08.903Z,9.38
2023-04-09T10:34:11.496Z,5.68
2023-04-09T10:37:15.796Z,6.35
2023-04-09T10:40:21.807Z,5.35
2023-04-09T10:43:24.284Z,6.07
2023-04-09T10:46:31.708Z,6.85
2023-04-09T10:49:38.647Z,5.95
2023-04-09T10:52:42.392Z,6.85
2023-04-09T10:55:50.301Z,7.05
2023-04-09T10:58:53.423Z,7.40
2023-04-09T11:01:56.468Z,6.55
2023-04-09T11:05:22.717Z,6.03
2023-04-09T11:08:29.920Z,5.68
2023-04-09T11:11:34.591Z,6.63
2023-04-09T11:14:37.304Z,5.97
2023-04-09T11:17:39.756Z,7.53
2023-04-09T11:20:42.397Z,5.90
2023-04-09T11:23:52.016Z,6.85
2023-04-09T11:26:54.856Z,6.57
2023-04-09T11:29:57.369Z,5.80
2023-04-09T11:33:00.166Z,8.77
2023-04-09T11:36:05.569Z,9.10
2023-04-09T11:39:08.169Z,5.65
2023-04-09T11:42:16.681Z,11.90
2023-04-09T11:45:21.233Z,5.80
2023-04-09T11:48:24.916Z,6.40
2023-04-09T11:51:28.185Z,6.18
2023-04-09T11:54:33.907Z,6.13
2023-04-09T11:57:47.063Z,6.80
2023-04-09T12:00:52.994Z,6.17
2023-04-09T12:03:55.946Z,6.70
2023-04-09T12:06:59.140Z,6.18
2023-04-09T12:10:10.833Z,7.97
2023-04-09T12:13:13.918Z,6.07
2023-04-09T12:16:20.738Z,5.60
2023-04-09T12:19:25.860Z,6.18
2023-04-09T12:22:28.526Z,6.20
2023-04-09T12:25:32.226Z,7.20
2023-04-09T12:28:34.682Z,8.65
2023-04-09T12:31:37.222Z,6.47
2023-04-09T12:34:39.779Z,5.18
2023-04-09T12:37:42.768Z,6.05
2023-04-09T12:40:45.470Z,9.43
2023-04-09T12:43:48.554Z,6.30
2023-04-09T12:46:51.056Z,6.33
2023-04-09T12:49:54.558Z,5.70
2023-04-09T12:52:57.009Z,5.10
2023-04-09T12:55:59.508Z,5.30
2023-04-09T12:59:02.113Z,5.32
2023-04-09T13:02:04.624Z,5.17
2023-04-09T13:05:07.537Z,5.93
2023-04-09T13:08:10.036Z,6.72
2023-04-09T13:11:12.500Z,7.10
2023-04-09T13:14:15.101Z,6.13
2023-04-09T13:17:17.626Z,6.50
2023-04-09T13:20:21.021Z,6.32
2023-04-09T13:23:23.513Z,6.05
2023-04-09T13:26:26.042Z,5.70
2023-04-09T13:29:29.491Z,5.75
2023-04-09T13:32:32.120Z,6.17
2023-04-09T13:35:34.719Z,8.90
2023-04-09T13:38:37.303Z,7.55
2023-04-09T13:41:40.526Z,5.28
2023-04-09T13:44:45.201Z,6.07
2023-04-09T13:47:47.718Z,5.90
2023-04-09T13:50:50.842Z,6.13
2023-04-09T13:53:53.475Z,6.40
2023-04-09T13:56:56.586Z,6.28
2023-04-09T14:00:01.974Z,6.85
2023-04-09T14:03:07.858Z,6.57
2023-04-09T14:06:10.957Z,6.78
2023-04-09T14:09:13.475Z,7.25
2023-04-09T14:12:16.041Z,6.88
2023-04-09T14:15:18.569Z,6.90
2023-04-09T14:18:21.426Z,12.30
2023-04-09T14:21:24.249Z,11.43
2023-04-09T14:24:26.779Z,5.97
2023-04-09T14:27:29.209Z,5.57
2023-04-09T14:30:31.831Z,6.55
2023-04-09T14:33:34.544Z,8.00
2023-04-09T14:36:36.973Z,6.60
2023-04-09T14:39:39.451Z,6.90
2023-04-09T14:42:42.276Z,6.47
2023-04-09T14:45:44.750Z,6.90
2023-04-09T14:48:47.213Z,16.13
2023-04-09T14:51:49.866Z,8.65
2023-04-09T14:54:52.696Z,7.20
2023-04-09T14:57:55.315Z,6.18
2023-04-09T15:00:57.838Z,6.05
2023-04-09T15:04:00.743Z,21.63
2023-04-09T15:07:03.359Z,29.10
2023-04-09T15:10:06.496Z,22.80
2023-04-09T15:13:08.979Z,15.20
2023-04-09T15:16:20.158Z,8.52
2023-04-09T15:19:23.007Z,10.63
2023-04-09T15:22:25.747Z,6.55
2023-04-09T15:25:28.178Z,9.00
2023-04-09T15:28:31.026Z,10.52
2023-04-09T15:31:33.991Z,6.90
2023-04-09T15:34:36.700Z,20.53
2023-04-09T15:37:39.158Z,12.80
2023-04-09T15:40:42.568Z,8.90
2023-04-09T15:43:45.013Z,5.78
2023-04-09T15:46:47.459Z,15.05
2023-04-09T15:49:50.091Z,8.00
2023-04-09T15:52:52.915Z,8.57
2023-04-09T15:55:55.359Z,7.47
2023-04-09T15:58:58.856Z,8.05
2023-04-09T16:02:02.168Z,9.07
2023-04-09T16:05:06.153Z,11.03
2023-04-09T16:08:09.221Z,8.48
2023-04-09T16:11:11.758Z,15.43
2023-04-09T16:14:14.377Z,20.38
2023-04-09T16:17:17.054Z,21.67
2023-04-09T16:20:19.901Z,21.60
2023-04-09T16:23:24.612Z,12.77
2023-04-09T16:26:27.031Z,14.13
2023-04-09T16:29:29.475Z,10.25
2023-04-09T16:32:32.009Z,8.95
2023-04-09T16:35:39.471Z,7.47
2023-04-09T16:38:42.225Z,8.02
2023-04-09T16:41:44.700Z,8.52
2023-04-09T16:44:47.089Z,8.55
2023-04-09T16:47:53.811Z,13.65
2023-04-09T16:50:56.622Z,11.33
2023-04-09T16:53:59.105Z,11.57
2023-04-09T16:57:01.899Z,15.40
2023-04-09T17:00:06.469Z,36.33
2023-04-09T17:03:09.229Z,33.45
2023-04-09T17:06:11.884Z,30.03
2023-04-09T17:09:14.326Z,30.17
2023-04-09T17:12:17.311Z,23.30
2023-04-09T17:15:19.804Z,23.08
2023-04-09T17:18:22.298Z,21.05
2023-04-09T17:21:24.777Z,18.93
2023-04-09T17:24:28.024Z,26.13
2023-04-09T17:27:31.332Z,25.92
2023-04-09T17:30:34.118Z,27.67
2023-04-09T17:33:36.811Z,26.23
2023-04-09T17:36:39.302Z,20.90
2023-04-09T17:39:41.720Z,18.95
2023-04-09T17:42:44.975Z,22.38
2023-04-09T17:45:47.500Z,26.52
2023-04-09T17:48:50.072Z,18.55
2023-04-09T17:51:52.627Z,14.37
2023-04-09T17:54:55.084Z,13.40
2023-04-09T17:57:57.594Z,15.70
2023-04-09T18:01:00.711Z,15.85
2023-04-09T18:04:03.473Z,16.60
2023-04-09T18:07:06.148Z,18.17
2023-04-09T18:10:08.971Z,17.80
2023-04-09T18:13:12.299Z,17.50
2023-04-09T18:16:14.854Z,31.15
2023-04-09T18:19:17.643Z,21.40
2023-04-09T18:22:20.194Z,17.60
2023-04-09T18:25:23.338Z,26.45
2023-04-09T18:28:26.225Z,28.33
2023-04-09T18:31:28.808Z,31.20
2023-04-09T18:34:32.015Z,35.20
2023-04-09T18:37:34.754Z,34.97
2023-04-09T18:40:42.201Z,43.00
2023-04-09T18:43:44.616Z,39.00
2023-04-09T18:46:47.261Z,36.42
2023-04-09T18:49:49.760Z,34.50
2023-04-09T18:52:53.132Z,31.90
2023-04-09T18:55:55.932Z,33.40
2023-04-09T18:58:58.590Z,27.67
2023-04-09T19:02:04.965Z,25.38
2023-04-09T19:05:08.095Z,22.08
2023-04-09T19:08:10.869Z,20.60
2023-04-09T19:11:14.234Z,21.25
2023-04-09T19:14:16.700Z,19.65
2023-04-09T19:17:19.221Z,21.10
2023-04-09T19:20:22.497Z,34.63
2023-04-09T19:23:26.295Z,22.43
2023-04-09T19:26:29.322Z,26.65
2023-04-09T19:29:32.050Z,26.13
2023-04-09T19:32:34.586Z,30.33
2023-04-09T19:35:40.617Z,43.20
2023-04-09T19:38:43.427Z,41.73
2023-04-09T19:41:45.812Z,39.17
2023-04-09T19:44:48.402Z,37.10
2023-04-09T19:47:51.058Z,41.85
2023-04-09T19:50:54.265Z,32.20
2023-04-09T19:53:57.038Z,32.10
2023-04-09T19:57:00.736Z,27.17
2023-04-09T20:00:04.856Z,24.13
2023-04-09T20:03:14.116Z,16.52
2023-04-09T20:06:16.956Z,17.48
2023-04-09T20:09:20.886Z,20.83
2023-04-09T20:12:28.310Z,13.98
2023-04-09T20:15:31.071Z,13.40
2023-04-09T20:18:33.585Z,13.75
2023-04-09T20:21:36.407Z,13.52
2023-04-09T20:24:39.040Z,14.73
2023-04-09T20:27:41.594Z,17.30
2023-04-09T20:30:44.711Z,14.50
2023-04-09T20:33:47.203Z,14.32
2023-04-09T20:36:49.625Z,14.82
2023-04-09T20:39:52.149Z,20.20
2023-04-09T20:42:54.579Z,16.55
2023-04-09T20:45:57.448Z,14.52
2023-04-09T20:49:00.801Z,13.02
2023-04-09T20:52:03.991Z,11.70
2023-04-09T20:55:06.782Z,11.37
2023-04-09T20:58:09.329Z,10.02
2023-04-09T21:01:12.340Z,11.45
2023-04-09T21:04:15.099Z,12.00
2023-04-09T21:07:17.763Z,13.57
2023-04-09T21:10:20.511Z,13.57
2023-04-09T21:13:23.756Z,13.55
2023-04-09T21:16:28.597Z,13.68
2023-04-09T21:19:31.537Z,11.65
2023-04-09T21:22:34.651Z,9.50
2023-04-09T21:25:37.100Z,9.67
2023-04-09T21:28:40.387Z,10.43
2023-04-09T21:31:42.907Z,11.02
2023-04-09T21:34:45.332Z,13.30
2023-04-09T21:37:48.119Z,13.10
2023-04-09T21:40:50.757Z,12.30
2023-04-09T21:43:53.524Z,11.43
2023-04-09T21:46:56.422Z,15.23
2023-04-09T21:49:59.375Z,15.80
2023-04-09T21:53:03.257Z,15.85
2023-04-09T21:56:06.279Z,16.33
2023-04-09T21:59:08.844Z,17.10
2023-04-09T22:02:11.903Z,16.23
2023-04-09T22:05:14.776Z,15.63
2023-04-09T22:08:17.414Z,17.90
2023-04-09T22:11:19.804Z,18.57
2023-04-09T22:14:22.332Z,16.92
2023-04-09T22:17:24.842Z,15.65
2023-04-09T22:20:27.789Z,15.48
2023-04-09T22:23:30.669Z,15.52
2023-04-09T22:26:33.256Z,16.50
2023-04-09T22:29:35.849Z,19.00
2023-04-09T22:32:38.518Z,16.73
2023-04-09T22:35:41.305Z,17.70
2023-04-09T22:38:43.718Z,15.55
2023-04-09T22:41:46.426Z,19.33
2023-04-09T22:44:48.938Z,21.67
2023-04-09T22:47:51.458Z,14.68
2023-04-09T22:50:54.001Z,11.80
2023-04-09T22:53:56.567Z,14.00
2023-04-09T22:56:59.074Z,13.57
2023-04-09T23:00:01.769Z,12.88
2023-04-09T23:03:06.048Z,12.88
2023-04-09T23:06:08.778Z,12.30
2023-04-09T23:09:11.217Z,13.60
2023-04-09T23:12:14.223Z,12.23
2023-04-09T23:15:17.263Z,10.85
2023-04-09T23:18:19.681Z,11.15
2023-04-09T23:21:22.175Z,12.05
2023-04-09T23:24:24.566Z,11.10
2023-04-09T23:27:28.866Z,13.13
2023-04-09T23:30:32.259Z,11.88
2023-04-09T23:33:34.809Z,11.15
2023-04-09T23:36:37.222Z,11.18
2023-04-09T23:39:39.859Z,11.07
2023-04-09T23:42:42.481Z,9.57
2023-04-09T23:45:44.961Z,10.73
2023-04-09T23:48:47.544Z,10.02
2023-04-09T23:51:52.764Z,11.23
2023-04-09T23:54:55.900Z,9.07
2023-04-09T23:57:58.374Z,9.43
